sensor_id;sensor_type;location;lat;lon;timestamp;pressure;altitude;pressure_sealevel;temperature;humidity
59787;BME280;45672;51.612;5.536;2023-11-22T00:01:49;102519.66;;;3.74;100.00
59787;BME280;45672;51.612;5.536;2023-11-22T00:04:14;102526.47;;;3.78;100.00
59787;BME280;45672;51.612;5.536;2023-11-22T00:06:40;102524.28;;;3.69;100.00
59787;BME280;45672;51.612;5.536;2023-11-22T00:09:05;102522.78;;;3.63;100.00
59787;BME280;45672;51.612;5.536;2023-11-22T00:11:32;102512.44;;;3.58;100.00
59787;BME280;45672;51.612;5.536;2023-11-22T00:13:57;102523.69;;;3.62;100.00
59787;BME280;45672;51.612;5.536;2023-11-22T00:16:22;102502.91;;;3.56;100.00
59787;BME280;45672;51.612;5.536;2023-11-22T00:18:48;102510.53;;;3.62;100.00
59787;BME280;45672;51.612;5.536;2023-11-22T00:21:13;102521.19;;;3.59;100.00
59787;BME280;45672;51.612;5.536;2023-11-22T00:23:39;102510.66;;;3.59;100.00
59787;BME280;45672;51.612;5.536;2023-11-22T00:26:04;102505.41;;;3.59;100.00
59787;BME280;45672;51.612;5.536;2023-11-22T00:28:31;102512.63;;;3.54;100.00
59787;BME280;45672;51.612;5.536;2023-11-22T00:30:56;102517.19;;;3.50;100.00
59787;BME280;45672;51.612;5.536;2023-11-22T00:33:22;102518.47;;;3.41;100.00
59787;BME280;45672;51.612;5.536;2023-11-22T00:35:47;102529.81;;;3.42;100.00
59787;BME280;45672;51.612;5.536;2023-11-22T00:38:12;102536.75;;;3.44;100.00
59787;BME280;45672;51.612;5.536;2023-11-22T00:40:37;102543.72;;;3.45;100.00
59787;BME280;45672;51.612;5.536;2023-11-22T00:43:03;102547.25;;;3.44;100.00
59787;BME280;45672;51.612;5.536;2023-11-22T00:45:28;102549.97;;;3.43;100.00
59787;BME280;45672;51.612;5.536;2023-11-22T00:47:55;102547.34;;;3.43;100.00
59787;BME280;45672;51.612;5.536;2023-11-22T00:50:20;102549.81;;;3.46;100.00
59787;BME280;45672;51.612;5.536;2023-11-22T00:52:46;102542.91;;;3.43;100.00
59787;BME280;45672;51.612;5.536;2023-11-22T00:55:12;102533.44;;;3.39;100.00
59787;BME280;45672;51.612;5.536;2023-11-22T00:57:37;102540.41;;;3.40;100.00
59787;BME280;45672;51.612;5.536;2023-11-22T01:00:04;102544.56;;;3.46;100.00
59787;BME280;45672;51.612;5.536;2023-11-22T01:02:30;102547.34;;;3.43;100.00
59787;BME280;45672;51.612;5.536;2023-11-22T01:04:55;102547.25;;;3.44;100.00
59787;BME280;45672;51.612;5.536;2023-11-22T01:07:21;102553.50;;;3.42;100.00
59787;BME280;45672;51.612;5.536;2023-11-22T01:09:46;102563.13;;;3.43;100.00
59787;BME280;45672;51.612;5.536;2023-11-22T01:12:11;102561.41;;;3.42;100.00
59787;BME280;45672;51.612;5.536;2023-11-22T01:14:38;102563.31;;;3.38;100.00
59787;BME280;45672;51.612;5.536;2023-11-22T01:17:04;102566.81;;;3.39;100.00
59787;BME280;45672;51.612;5.536;2023-11-22T01:19:29;102577.25;;;3.40;100.00
59787;BME280;45672;51.612;5.536;2023-11-22T01:21:54;102574.75;;;3.37;100.00
59787;BME280;45672;51.612;5.536;2023-11-22T01:24:20;102567.91;;;3.33;100.00
59787;BME280;45672;51.612;5.536;2023-11-22T01:26:46;102572.19;;;3.36;100.00
59787;BME280;45672;51.612;5.536;2023-11-22T01:29:11;102589.56;;;3.40;100.00
59787;BME280;45672;51.612;5.536;2023-11-22T01:31:37;102593.31;;;3.34;100.00
59787;BME280;45672;51.612;5.536;2023-11-22T01:34:02;102570.28;;;3.19;100.00
59787;BME280;45672;51.612;5.536;2023-11-22T01:36:29;102603.16;;;3.29;100.00
59787;BME280;45672;51.612;5.536;2023-11-22T01:38:55;102606.63;;;3.30;100.00
59787;BME280;45672;51.612;5.536;2023-11-22T01:41:21;102609.34;;;3.28;100.00
59787;BME280;45672;51.612;5.536;2023-11-22T01:43:47;102602.50;;;3.24;100.00
59787;BME280;45672;51.612;5.536;2023-11-22T01:46:22;102622.31;;;3.33;100.00
59787;BME280;45672;51.612;5.536;2023-11-22T01:48:51;102631.13;;;3.32;100.00
59787;BME280;45672;51.612;5.536;2023-11-22T01:51:21;102637.25;;;3.32;100.00
59787;BME280;45672;51.612;5.536;2023-11-22T01:53:48;102638.75;;;3.38;100.00
59787;BME280;45672;51.612;5.536;2023-11-22T01:56:15;102637.00;;;3.38;100.00
59787;BME280;45672;51.612;5.536;2023-11-22T01:58:43;102629.34;;;3.32;100.00
59787;BME280;45672;51.612;5.536;2023-11-22T02:01:09;102627.75;;;3.28;100.00
59787;BME280;45672;51.612;5.536;2023-11-22T02:03:37;102626.06;;;3.27;100.00
59787;BME280;45672;51.612;5.536;2023-11-22T02:06:03;102627.63;;;3.31;100.00
59787;BME280;45672;51.612;5.536;2023-11-22T02:08:28;102624.00;;;3.34;100.00
59787;BME280;45672;51.612;5.536;2023-11-22T02:11:01;102612.72;;;3.32;100.00
59787;BME280;45672;51.612;5.536;2023-11-22T02:13:30;102622.06;;;3.39;100.00
59787;BME280;45672;51.612;5.536;2023-11-22T02:15:55;102629.75;;;3.43;100.00
59787;BME280;45672;51.612;5.536;2023-11-22T02:18:25;102613.31;;;3.38;100.00
59787;BME280;45672;51.612;5.536;2023-11-22T02:20:51;102608.22;;;3.34;100.00
59787;BME280;45672;51.612;5.536;2023-11-22T02:23:16;102616.06;;;3.35;100.00
59787;BME280;45672;51.612;5.536;2023-11-22T02:25:42;102631.66;;;3.40;100.00
59787;BME280;45672;51.612;5.536;2023-11-22T02:28:07;102631.84;;;3.35;100.00
59787;BME280;45672;51.612;5.536;2023-11-22T02:30:36;102621.66;;;3.27;100.00
59787;BME280;45672;51.612;5.536;2023-11-22T02:33:01;102624.88;;;3.34;100.00
59787;BME280;45672;51.612;5.536;2023-11-22T02:35:27;102622.56;;;3.26;100.00
59787;BME280;45672;51.612;5.536;2023-11-22T02:37:52;102634.88;;;3.26;100.00
59787;BME280;45672;51.612;5.536;2023-11-22T02:40:19;102631.63;;;3.19;100.00
59787;BME280;45672;51.612;5.536;2023-11-22T02:42:49;102616.88;;;3.15;100.00
59787;BME280;45672;51.612;5.536;2023-11-22T02:45:16;102630.16;;;3.12;100.00
59787;BME280;45672;51.612;5.536;2023-11-22T02:47:43;102632.72;;;3.14;100.00
59787;BME280;45672;51.612;5.536;2023-11-22T02:50:09;102630.91;;;3.16;100.00
59787;BME280;45672;51.612;5.536;2023-11-22T02:52:36;102624.06;;;3.12;100.00
59787;BME280;45672;51.612;5.536;2023-11-22T02:55:02;102619.66;;;3.12;100.00
59787;BME280;45672;51.612;5.536;2023-11-22T02:57:28;102615.34;;;3.09;100.00
59787;BME280;45672;51.612;5.536;2023-11-22T02:59:53;102623.31;;;3.08;100.00
59787;BME280;45672;51.612;5.536;2023-11-22T03:02:18;102623.44;;;3.05;100.00
59787;BME280;45672;51.612;5.536;2023-11-22T03:04:44;102624.28;;;3.05;100.00
59787;BME280;45672;51.612;5.536;2023-11-22T03:07:09;102623.44;;;3.05;100.00
59787;BME280;45672;51.612;5.536;2023-11-22T03:09:35;102621.06;;;2.99;100.00
59787;BME280;45672;51.612;5.536;2023-11-22T03:12:01;102623.69;;;2.99;100.00
59787;BME280;45672;51.612;5.536;2023-11-22T03:14:28;102627.13;;;3.01;100.00
59787;BME280;45672;51.612;5.536;2023-11-22T03:16:54;102621.13;;;2.97;100.00
59787;BME280;45672;51.612;5.536;2023-11-22T03:19:19;102620.59;;;2.89;100.00
59787;BME280;45672;51.612;5.536;2023-11-22T03:21:45;102627.72;;;2.85;100.00
59787;BME280;45672;51.612;5.536;2023-11-22T03:24:11;102620.03;;;2.81;100.00
59787;BME280;45672;51.612;5.536;2023-11-22T03:26:36;102631.38;;;2.81;100.00
59787;BME280;45672;51.612;5.536;2023-11-22T03:29:02;102628.88;;;2.78;100.00
59787;BME280;45672;51.612;5.536;2023-11-22T03:31:28;102615.59;;;2.81;100.00
59787;BME280;45672;51.612;5.536;2023-11-22T03:33:57;102632.25;;;2.82;100.00
59787;BME280;45672;51.612;5.536;2023-11-22T03:36:22;102634.06;;;2.80;100.00
59787;BME280;45672;51.612;5.536;2023-11-22T03:38:48;102636.75;;;2.78;100.00
59787;BME280;45672;51.612;5.536;2023-11-22T03:41:13;102648.19;;;2.77;100.00
59787;BME280;45672;51.612;5.536;2023-11-22T03:43:39;102654.91;;;2.62;100.00
59787;BME280;45672;51.612;5.536;2023-11-22T03:46:04;102656.00;;;2.56;100.00
59787;BME280;45672;51.612;5.536;2023-11-22T03:48:29;102670.91;;;2.56;100.00
59787;BME280;45672;51.612;5.536;2023-11-22T03:50:56;102684.91;;;2.56;100.00
59787;BME280;45672;51.612;5.536;2023-11-22T03:53:21;102691.75;;;2.61;100.00
59787;BME280;45672;51.612;5.536;2023-11-22T03:55:49;102713.63;;;2.61;100.00
59787;BME280;45672;51.612;5.536;2023-11-22T03:58:15;102707.06;;;2.49;100.00
59787;BME280;45672;51.612;5.536;2023-11-22T04:00:40;102707.25;;;2.45;100.00
59787;BME280;45672;51.612;5.536;2023-11-22T04:03:06;102707.13;;;2.48;100.00
59787;BME280;45672;51.612;5.536;2023-11-22T04:05:31;102709.75;;;2.48;100.00
59787;BME280;45672;51.612;5.536;2023-11-22T04:07:57;102711.34;;;2.52;100.00
59787;BME280;45672;51.612;5.536;2023-11-22T04:10:22;102720.88;;;2.54;100.00
59787;BME280;45672;51.612;5.536;2023-11-22T04:12:48;102721.88;;;2.52;100.00
59787;BME280;45672;51.612;5.536;2023-11-22T04:15:14;102723.28;;;2.61;100.00
59787;BME280;45672;51.612;5.536;2023-11-22T04:17:40;102724.31;;;2.56;100.00
59787;BME280;45672;51.612;5.536;2023-11-22T04:20:09;102734.88;;;2.55;100.00
59787;BME280;45672;51.612;5.536;2023-11-22T04:22:39;102733.94;;;2.57;100.00
59787;BME280;45672;51.612;5.536;2023-11-22T04:25:05;102735.00;;;2.52;100.00
59787;BME280;45672;51.612;5.536;2023-11-22T04:27:32;102746.25;;;2.55;100.00
59787;BME280;45672;51.612;5.536;2023-11-22T04:29:58;102724.09;;;2.39;100.00
59787;BME280;45672;51.612;5.536;2023-11-22T04:32:23;102755.03;;;2.54;100.00
59787;BME280;45672;51.612;5.536;2023-11-22T04:34:49;102742.88;;;2.52;100.00
59787;BME280;45672;51.612;5.536;2023-11-22T04:37:14;102742.94;;;2.50;100.00
59787;BME280;45672;51.612;5.536;2023-11-22T04:39:39;102746.47;;;2.49;100.00
59787;BME280;45672;51.612;5.536;2023-11-22T04:42:05;102748.94;;;2.54;100.00
59787;BME280;45672;51.612;5.536;2023-11-22T04:44:31;102742.97;;;2.49;100.00
59787;BME280;45672;51.612;5.536;2023-11-22T04:46:57;102733.47;;;2.46;100.00
59787;BME280;45672;51.612;5.536;2023-11-22T04:49:24;102716.34;;;2.34;100.00
59787;BME280;45672;51.612;5.536;2023-11-22T04:51:50;102741.53;;;2.40;100.00
59787;BME280;45672;51.612;5.536;2023-11-22T04:54:15;102745.09;;;2.39;100.00
59787;BME280;45672;51.612;5.536;2023-11-22T04:56:40;102739.84;;;2.39;100.00
59787;BME280;45672;51.612;5.536;2023-11-22T04:59:06;102740.81;;;2.36;100.00
59787;BME280;45672;51.612;5.536;2023-11-22T05:01:34;102751.19;;;2.39;100.00
59787;BME280;45672;51.612;5.536;2023-11-22T05:04:00;102748.63;;;2.38;100.00
59787;BME280;45672;51.612;5.536;2023-11-22T05:06:25;102729.66;;;2.30;100.00
59787;BME280;45672;51.612;5.536;2023-11-22T05:08:52;102750.44;;;2.36;100.00
59787;BME280;45672;51.612;5.536;2023-11-22T05:11:18;102750.66;;;2.30;100.00
59787;BME280;45672;51.612;5.536;2023-11-22T05:13:43;102763.00;;;2.28;100.00
59787;BME280;45672;51.612;5.536;2023-11-22T05:16:09;102759.44;;;2.29;100.00
59787;BME280;45672;51.612;5.536;2023-11-22T05:18:34;102757.00;;;2.24;100.00
59787;BME280;45672;51.612;5.536;2023-11-22T05:21:01;102757.84;;;2.24;100.00
59787;BME280;45672;51.612;5.536;2023-11-22T05:23:28;102764.03;;;2.23;100.00
59787;BME280;45672;51.612;5.536;2023-11-22T05:25:53;102755.50;;;2.17;100.00
59787;BME280;45672;51.612;5.536;2023-11-22T05:28:19;102756.28;;;2.19;100.00
59787;BME280;45672;51.612;5.536;2023-11-22T05:30:44;102752.69;;;2.21;100.00
59787;BME280;45672;51.612;5.536;2023-11-22T05:33:09;102748.25;;;2.23;100.00
59787;BME280;45672;51.612;5.536;2023-11-22T05:35:35;102738.66;;;2.22;100.00
59787;BME280;45672;51.612;5.536;2023-11-22T05:38:00;102739.38;;;2.28;100.00
59787;BME280;45672;51.612;5.536;2023-11-22T05:40:25;102734.91;;;2.30;100.00
59787;BME280;45672;51.612;5.536;2023-11-22T05:42:51;102734.13;;;2.28;100.00
59787;BME280;45672;51.612;5.536;2023-11-22T05:45:16;102743.50;;;2.35;100.00
59787;BME280;45672;51.612;5.536;2023-11-22T05:47:41;102744.28;;;2.37;100.00
59787;BME280;45672;51.612;5.536;2023-11-22T05:50:08;102766.13;;;2.39;100.00
59787;BME280;45672;51.612;5.536;2023-11-22T05:52:34;102762.47;;;2.43;100.00
59787;BME280;45672;51.612;5.536;2023-11-22T05:54:59;102770.38;;;2.41;100.00
59787;BME280;45672;51.612;5.536;2023-11-22T05:57:29;102790.44;;;2.44;100.00
59787;BME280;45672;51.612;5.536;2023-11-22T05:59:54;102797.31;;;2.48;100.00
59787;BME280;45672;51.612;5.536;2023-11-22T06:02:20;102783.16;;;2.52;100.00
59787;BME280;45672;51.612;5.536;2023-11-22T06:04:45;102784.88;;;2.53;100.00
59787;BME280;45672;51.612;5.536;2023-11-22T06:07:10;102782.38;;;2.49;100.00
59787;BME280;45672;51.612;5.536;2023-11-22T06:09:36;102774.41;;;2.52;100.00
59787;BME280;45672;51.612;5.536;2023-11-22T06:12:01;102792.91;;;2.49;100.00
59787;BME280;45672;51.612;5.536;2023-11-22T06:14:26;102784.28;;;2.45;100.00
59787;BME280;45672;51.612;5.536;2023-11-22T06:16:52;102796.47;;;2.48;100.00
59787;BME280;45672;51.612;5.536;2023-11-22T06:19:17;102794.84;;;2.44;100.00
59787;BME280;45672;51.612;5.536;2023-11-22T06:21:43;102799.19;;;2.45;100.00
59787;BME280;45672;51.612;5.536;2023-11-22T06:24:08;102796.41;;;2.49;100.00
59787;BME280;45672;51.612;5.536;2023-11-22T06:26:36;102806.00;;;2.50;100.00
59787;BME280;45672;51.612;5.536;2023-11-22T06:29:05;102804.22;;;2.51;100.00
59787;BME280;45672;51.612;5.536;2023-11-22T06:31:30;102800.75;;;2.50;100.00
59787;BME280;45672;51.612;5.536;2023-11-22T06:33:55;102796.13;;;2.57;100.00
59787;BME280;45672;51.612;5.536;2023-11-22T06:36:21;102801.22;;;2.62;100.00
59787;BME280;45672;51.612;5.536;2023-11-22T06:38:46;102819.41;;;2.68;100.00
59787;BME280;45672;51.612;5.536;2023-11-22T06:41:11;102814.19;;;2.66;100.00
59787;BME280;45672;51.612;5.536;2023-11-22T06:43:37;102816.84;;;2.66;100.00
59787;BME280;45672;51.612;5.536;2023-11-22T06:46:02;102830.63;;;2.73;100.00
59787;BME280;45672;51.612;5.536;2023-11-22T06:48:31;102830.63;;;2.73;100.00
59787;BME280;45672;51.612;5.536;2023-11-22T06:50:56;102839.19;;;2.78;100.00
59787;BME280;45672;51.612;5.536;2023-11-22T06:53:21;102839.06;;;2.81;100.00
59787;BME280;45672;51.612;5.536;2023-11-22T06:55:47;102828.50;;;2.83;100.00
59787;BME280;45672;51.612;5.536;2023-11-22T06:58:12;102822.44;;;2.81;100.00
59787;BME280;45672;51.612;5.536;2023-11-22T07:00:38;102800.56;;;2.80;100.00
59787;BME280;45672;51.612;5.536;2023-11-22T07:03:05;102794.25;;;2.84;100.00
59787;BME280;45672;51.612;5.536;2023-11-22T07:05:31;102802.25;;;2.81;100.00
59787;BME280;45672;51.612;5.536;2023-11-22T07:07:56;102806.25;;;2.68;100.00
59787;BME280;45672;51.612;5.536;2023-11-22T07:10:22;102794.06;;;2.65;100.00
59787;BME280;45672;51.612;5.536;2023-11-22T07:12:47;102791.81;;;2.54;100.00
59787;BME280;45672;51.612;5.536;2023-11-22T07:15:13;102789.09;;;2.57;100.00
59787;BME280;45672;51.612;5.536;2023-11-22T07:17:39;102795.69;;;2.44;100.00
59787;BME280;45672;51.612;5.536;2023-11-22T07:20:06;102798.50;;;2.39;100.00
59787;BME280;45672;51.612;5.536;2023-11-22T07:22:34;102797.66;;;2.39;100.00
59787;BME280;45672;51.612;5.536;2023-11-22T07:25:00;102799.34;;;2.40;100.00
59787;BME280;45672;51.612;5.536;2023-11-22T07:27:27;102803.41;;;2.49;100.00
59787;BME280;45672;51.612;5.536;2023-11-22T07:29:53;102804.16;;;2.52;100.00
59787;BME280;45672;51.612;5.536;2023-11-22T07:32:19;102809.13;;;2.60;100.00
59787;BME280;45672;51.612;5.536;2023-11-22T07:34:48;102804.06;;;2.55;100.00
59787;BME280;45672;51.612;5.536;2023-11-22T07:37:13;102807.28;;;2.64;100.00
59787;BME280;45672;51.612;5.536;2023-11-22T07:39:40;102806.69;;;2.55;100.00
59787;BME280;45672;51.612;5.536;2023-11-22T07:42:08;102804.97;;;2.54;100.00
59787;BME280;45672;51.612;5.536;2023-11-22T07:44:34;102808.19;;;2.63;100.00
59787;BME280;45672;51.612;5.536;2023-11-22T07:47:01;102807.41;;;2.61;100.00
59787;BME280;45672;51.612;5.536;2023-11-22T07:49:26;102818.56;;;2.66;100.00
59787;BME280;45672;51.612;5.536;2023-11-22T07:51:52;102818.22;;;2.76;100.00
59787;BME280;45672;51.612;5.536;2023-11-22T07:54:18;102832.00;;;2.83;100.00
59787;BME280;45672;51.612;5.536;2023-11-22T07:56:44;102833.53;;;2.89;100.00
59787;BME280;45672;51.612;5.536;2023-11-22T07:59:12;102830.75;;;2.93;100.00
59787;BME280;45672;51.612;5.536;2023-11-22T08:01:38;102837.72;;;2.95;100.00
59787;BME280;45672;51.612;5.536;2023-11-22T08:04:03;102850.75;;;2.98;100.00
59787;BME280;45672;51.612;5.536;2023-11-22T08:06:31;102839.41;;;2.96;100.00
59787;BME280;45672;51.612;5.536;2023-11-22T08:08:56;102853.03;;;3.07;100.00
59787;BME280;45672;51.612;5.536;2023-11-22T08:11:23;102857.22;;;3.13;100.00
59787;BME280;45672;51.612;5.536;2023-11-22T08:13:48;102870.34;;;3.14;100.00
59787;BME280;45672;51.612;5.536;2023-11-22T08:16:14;102864.53;;;3.04;100.00
59787;BME280;45672;51.612;5.536;2023-11-22T08:18:40;102859.34;;;3.03;100.00
59787;BME280;45672;51.612;5.536;2023-11-22T08:21:08;102864.25;;;3.12;100.00
59787;BME280;45672;51.612;5.536;2023-11-22T08:23:33;102870.22;;;3.17;100.00
59787;BME280;45672;51.612;5.536;2023-11-22T08:25:59;102874.44;;;3.21;100.00
59787;BME280;45672;51.612;5.536;2023-11-22T08:28:25;102868.38;;;3.19;100.00
59787;BME280;45672;51.612;5.536;2023-11-22T08:30:51;102883.19;;;3.22;100.00
59787;BME280;45672;51.612;5.536;2023-11-22T08:33:16;102865.16;;;3.11;100.00
59787;BME280;45672;51.612;5.536;2023-11-22T08:35:41;102872.78;;;3.19;100.00
59787;BME280;45672;51.612;5.536;2023-11-22T08:38:08;102861.19;;;3.24;100.00
59787;BME280;45672;51.612;5.536;2023-11-22T08:40:35;102863.75;;;3.26;100.00
59787;BME280;45672;51.612;5.536;2023-11-22T08:43:03;102869.97;;;3.23;100.00
59787;BME280;45672;51.612;5.536;2023-11-22T08:45:30;102884.09;;;3.21;100.00
59787;BME280;45672;51.612;5.536;2023-11-22T08:47:56;102891.13;;;3.20;100.00
59787;BME280;45672;51.612;5.536;2023-11-22T08:50:22;102896.22;;;3.25;100.00
59787;BME280;45672;51.612;5.536;2023-11-22T08:52:48;102882.66;;;3.12;100.00
59787;BME280;45672;51.612;5.536;2023-11-22T08:55:15;102898.00;;;3.24;100.00
59787;BME280;45672;51.612;5.536;2023-11-22T08:57:40;102897.81;;;3.29;100.00
59787;BME280;45672;51.612;5.536;2023-11-22T09:00:06;102886.28;;;3.33;100.00
59787;BME280;45672;51.612;5.536;2023-11-22T09:02:37;102899.13;;;3.41;100.00
59787;BME280;45672;51.612;5.536;2023-11-22T09:05:04;102893.34;;;3.31;100.00
59787;BME280;45672;51.612;5.536;2023-11-22T09:07:33;102887.25;;;3.31;100.00
59787;BME280;45672;51.612;5.536;2023-11-22T09:10:00;102890.56;;;3.36;100.00
59787;BME280;45672;51.612;5.536;2023-11-22T09:12:25;102888.53;;;3.44;100.00
59787;BME280;45672;51.612;5.536;2023-11-22T09:14:52;102879.94;;;3.39;100.00
59787;BME280;45672;51.612;5.536;2023-11-22T09:17:18;102889.44;;;3.43;100.00
59787;BME280;45672;51.612;5.536;2023-11-22T09:19:43;102892.91;;;3.43;100.00
59787;BME280;45672;51.612;5.536;2023-11-22T09:22:08;102902.34;;;3.49;100.00
59787;BME280;45672;51.612;5.536;2023-11-22T09:24:36;102907.66;;;3.48;100.00
59787;BME280;45672;51.612;5.536;2023-11-22T09:27:02;102911.06;;;3.51;100.00
59787;BME280;45672;51.612;5.536;2023-11-22T09:29:30;102904.84;;;3.52;100.00
59787;BME280;45672;51.612;5.536;2023-11-22T09:31:55;102882.88;;;3.53;100.00
59787;BME280;45672;51.612;5.536;2023-11-22T09:34:21;102899.91;;;3.67;100.00
59787;BME280;45672;51.612;5.536;2023-11-22T09:36:47;102897.72;;;3.78;100.00
59787;BME280;45672;51.612;5.536;2023-11-22T09:39:12;102905.63;;;3.78;100.00
59787;BME280;45672;51.612;5.536;2023-11-22T09:41:38;102903.81;;;3.80;100.00
59787;BME280;45672;51.612;5.536;2023-11-22T09:44:04;102910.72;;;3.83;100.00
59787;BME280;45672;51.612;5.536;2023-11-22T09:46:30;102909.75;;;3.85;100.00
59787;BME280;45672;51.612;5.536;2023-11-22T09:49:00;102911.44;;;3.86;100.00
59787;BME280;45672;51.612;5.536;2023-11-22T09:51:29;102919.22;;;3.89;100.00
59787;BME280;45672;51.612;5.536;2023-11-22T09:53:59;102910.47;;;3.89;100.00
59787;BME280;45672;51.612;5.536;2023-11-22T09:56:27;102906.94;;;3.90;100.00
59787;BME280;45672;51.612;5.536;2023-11-22T09:58:54;102905.91;;;3.94;100.00
59787;BME280;45672;51.612;5.536;2023-11-22T10:01:22;102900.06;;;4.08;100.00
59787;BME280;45672;51.612;5.536;2023-11-22T10:03:47;102900.06;;;4.08;100.00
59787;BME280;45672;51.612;5.536;2023-11-22T10:06:13;102891.25;;;4.09;100.00
59787;BME280;45672;51.612;5.536;2023-11-22T10:08:40;102901.28;;;4.21;100.00
59787;BME280;45672;51.612;5.536;2023-11-22T10:11:06;102899.00;;;4.34;100.00
59787;BME280;45672;51.612;5.536;2023-11-22T10:13:32;102900.66;;;4.37;100.00
59787;BME280;45672;51.612;5.536;2023-11-22T10:16:11;102901.31;;;4.42;100.00
59787;BME280;45672;51.612;5.536;2023-11-22T10:18:47;102902.34;;;4.38;100.00
59787;BME280;45672;51.612;5.536;2023-11-22T10:23:46;102899.41;;;4.45;100.00
59787;BME280;45672;51.612;5.536;2023-11-22T10:26:12;102902.19;;;4.42;100.00
59787;BME280;45672;51.612;5.536;2023-11-22T10:28:41;102904.16;;;4.37;100.00
59787;BME280;45672;51.612;5.536;2023-11-22T10:31:08;102902.19;;;4.42;100.00
59787;BME280;45672;51.612;5.536;2023-11-22T10:33:52;102892.44;;;4.44;100.00
59787;BME280;45672;51.612;5.536;2023-11-22T10:36:18;102898.56;;;4.45;100.00
59787;BME280;45672;51.612;5.536;2023-11-22T10:38:46;102895.94;;;4.45;100.00
59787;BME280;45672;51.612;5.536;2023-11-22T10:41:11;102885.25;;;4.48;100.00
59787;BME280;45672;51.612;5.536;2023-11-22T10:43:39;102890.72;;;4.64;100.00
59787;BME280;45672;51.612;5.536;2023-11-22T10:46:05;102889.53;;;4.71;100.00
59787;BME280;45672;51.612;5.536;2023-11-22T10:48:32;102883.91;;;4.79;100.00
59787;BME280;45672;51.612;5.536;2023-11-22T10:51:02;102889.78;;;4.86;100.00
59787;BME280;45672;51.612;5.536;2023-11-22T10:53:32;102875.63;;;4.88;100.00
59787;BME280;45672;51.612;5.536;2023-11-22T10:56:14;102862.56;;;4.85;100.00
59787;BME280;45672;51.612;5.536;2023-11-22T10:58:49;102857.16;;;4.88;100.00
59787;BME280;45672;51.612;5.536;2023-11-22T11:01:16;102861.66;;;4.86;100.00
59787;BME280;45672;51.612;5.536;2023-11-22T11:04:01;102852.72;;;4.89;100.00
59787;BME280;45672;51.612;5.536;2023-11-22T11:06:32;102841.47;;;4.85;100.00
59787;BME280;45672;51.612;5.536;2023-11-22T11:09:01;102839.44;;;4.92;100.00
59787;BME280;45672;51.612;5.536;2023-11-22T11:11:32;102845.63;;;5.10;100.00
59787;BME280;45672;51.612;5.536;2023-11-22T11:13:59;102844.84;;;5.27;100.00
59787;BME280;45672;51.612;5.536;2023-11-22T11:16:25;102842.06;;;5.30;100.00
59787;BME280;45672;51.612;5.536;2023-11-22T11:18:52;102841.88;;;5.34;100.00
59787;BME280;45672;51.612;5.536;2023-11-22T11:21:18;102836.94;;;5.27;100.00
59787;BME280;45672;51.612;5.536;2023-11-22T11:23:44;102838.97;;;5.22;100.00
59787;BME280;45672;51.612;5.536;2023-11-22T11:26:19;102838.22;;;5.18;100.00
59787;BME280;45672;51.612;5.536;2023-11-22T11:28:49;102842.78;;;5.14;100.00
59787;BME280;45672;51.612;5.536;2023-11-22T11:31:16;102838.59;;;5.10;100.00
59787;BME280;45672;51.612;5.536;2023-11-22T11:36:24;102834.84;;;5.14;100.00
59787;BME280;45672;51.612;5.536;2023-11-22T11:38:55;102820.53;;;5.20;100.00
59787;BME280;45672;51.612;5.536;2023-11-22T11:41:28;102800.88;;;5.27;100.00
59787;BME280;45672;51.612;5.536;2023-11-22T11:43:58;102791.00;;;5.31;100.00
59787;BME280;45672;51.612;5.536;2023-11-22T11:46:25;102780.88;;;5.41;100.00
59787;BME280;45672;51.612;5.536;2023-11-22T11:48:53;102778.44;;;5.36;100.00
59787;BME280;45672;51.612;5.536;2023-11-22T11:51:21;102778.22;;;5.41;100.00
59787;BME280;45672;51.612;5.536;2023-11-22T11:53:48;102759.38;;;5.48;100.00
59787;BME280;45672;51.612;5.536;2023-11-22T11:56:14;102757.22;;;5.57;100.00
59787;BME280;45672;51.612;5.536;2023-11-22T11:58:42;102743.94;;;5.58;100.00
59787;BME280;45672;51.612;5.536;2023-11-22T12:01:08;102740.69;;;5.53;100.00
59787;BME280;45672;51.612;5.536;2023-11-22T12:03:35;102752.94;;;5.54;100.00
59787;BME280;45672;51.612;5.536;2023-11-22T12:06:01;102729.91;;;5.39;100.00
59787;BME280;45672;51.612;5.536;2023-11-22T12:08:26;102744.56;;;5.46;100.00
59787;BME280;45672;51.612;5.536;2023-11-22T12:10:56;102742.38;;;5.54;100.00
59787;BME280;45672;51.612;5.536;2023-11-22T12:13:24;102727.00;;;5.45;100.00
59787;BME280;45672;51.612;5.536;2023-11-22T12:15:51;102726.91;;;5.46;100.00
59787;BME280;45672;51.612;5.536;2023-11-22T12:18:19;102737.00;;;5.56;100.00
59787;BME280;45672;51.612;5.536;2023-11-22T12:20:56;102733.38;;;5.58;100.00
59787;BME280;45672;51.612;5.536;2023-11-22T12:23:26;102734.31;;;5.57;100.00
59787;BME280;45672;51.612;5.536;2023-11-22T12:25:58;102739.22;;;5.65;100.00
59787;BME280;45672;51.612;5.536;2023-11-22T12:28:26;102734.56;;;5.70;100.00
59787;BME280;45672;51.612;5.536;2023-11-22T12:30:52;102745.06;;;5.72;100.00
59787;BME280;45672;51.612;5.536;2023-11-22T12:33:17;102748.53;;;5.72;100.00
59787;BME280;45672;51.612;5.536;2023-11-22T12:35:44;102744.19;;;5.71;100.00
59787;BME280;45672;51.612;5.536;2023-11-22T12:38:10;102745.13;;;5.70;100.00
59787;BME280;45672;51.612;5.536;2023-11-22T12:40:35;102751.19;;;5.72;100.00
59787;BME280;45672;51.612;5.536;2023-11-22T12:43:02;102743.34;;;5.70;100.00
59787;BME280;45672;51.612;5.536;2023-11-22T12:45:29;102745.34;;;5.65;100.00
59787;BME280;45672;51.612;5.536;2023-11-22T12:47:56;102746.34;;;5.63;100.00
59787;BME280;45672;51.612;5.536;2023-11-22T12:50:34;102739.13;;;5.66;100.00
59787;BME280;45672;51.612;5.536;2023-11-22T12:53:14;102750.41;;;5.70;100.00